createdAt,value
2022-08-16T00:00:22.277Z,18.50
2022-08-16T00:05:26.031Z,18.50
2022-08-16T00:10:33.308Z,18.50
2022-08-16T00:15:51.781Z,18.60
2022-08-16T00:20:56.440Z,18.60
2022-08-16T00:26:33.584Z,18.60
2022-08-16T00:31:24.210Z,18.60
2022-08-16T00:36:27.053Z,18.60
2022-08-16T00:41:30.918Z,18.50
2022-08-16T00:46:52.943Z,18.50
2022-08-16T00:52:30.273Z,18.50
2022-08-16T00:57:58.760Z,18.50
2022-08-16T01:02:53.736Z,18.40
2022-08-16T01:07:58.523Z,18.40
2022-08-16T01:13:07.985Z,18.30
2022-08-16T01:18:39.814Z,18.20
2022-08-16T01:24:02.249Z,18.10
2022-08-16T01:29:10.982Z,18.10
2022-08-16T01:34:23.451Z,18.00
2022-08-16T01:39:29.438Z,18.00
2022-08-16T01:44:37.671Z,18.00
2022-08-16T01:50:41.026Z,18.00
2022-08-16T01:55:06.590Z,18.00
2022-08-16T02:00:19.352Z,18.00
2022-08-16T02:05:23.448Z,17.90
2022-08-16T02:10:26.841Z,17.90
2022-08-16T02:15:35.390Z,17.90
2022-08-16T02:20:46.792Z,17.90
2022-08-16T02:25:52.027Z,17.90
2022-08-16T02:30:59.953Z,17.90
2022-08-16T02:36:02.915Z,17.90
2022-08-16T02:41:07.352Z,17.90
2022-08-16T02:46:13.889Z,17.90
2022-08-16T02:51:18.171Z,17.90
2022-08-16T02:56:21.984Z,17.90
2022-08-16T03:01:36.493Z,17.90
2022-08-16T03:06:51.547Z,17.90
2022-08-16T03:12:11.734Z,17.90
2022-08-16T03:17:19.771Z,17.90
2022-08-16T03:22:31.189Z,17.90
2022-08-16T03:27:39.218Z,17.80
2022-08-16T03:32:51.510Z,17.90
2022-08-16T03:38:02.689Z,17.90
2022-08-16T03:43:20.667Z,17.80
2022-08-16T03:48:37.212Z,17.90
2022-08-16T03:54:01.016Z,17.80
2022-08-16T03:59:06.590Z,17.80
2022-08-16T04:04:32.662Z,17.70
2022-08-16T04:09:38.792Z,17.70
2022-08-16T04:14:46.691Z,17.70
2022-08-16T04:19:51.702Z,17.70
2022-08-16T04:24:59.665Z,17.70
2022-08-16T04:30:12.257Z,17.70
2022-08-16T04:35:35.983Z,17.60
2022-08-16T04:40:42.673Z,17.60
2022-08-16T04:45:47.519Z,17.60
2022-08-16T04:51:11.546Z,17.60
2022-08-16T04:56:22.308Z,17.50
2022-08-16T05:01:47.730Z,17.50
2022-08-16T05:06:51.782Z,17.50
2022-08-16T05:12:03.793Z,17.60
2022-08-16T05:17:08.174Z,17.60
2022-08-16T05:22:18.301Z,17.60
2022-08-16T05:27:27.296Z,17.60
2022-08-16T05:32:32.391Z,17.60
2022-08-16T05:37:40.423Z,17.60
2022-08-16T05:42:49.449Z,17.60
2022-08-16T05:48:00.364Z,17.60
2022-08-16T05:53:26.840Z,17.60
2022-08-16T05:58:50.192Z,17.60
2022-08-16T06:03:54.562Z,17.60
2022-08-16T06:09:05.228Z,17.60
2022-08-16T06:14:12.238Z,17.60
2022-08-16T06:19:18.570Z,17.60
2022-08-16T06:24:53.815Z,17.50
2022-08-16T06:29:55.413Z,17.60
2022-08-16T06:35:02.642Z,17.60
2022-08-16T06:40:12.673Z,17.60
2022-08-16T06:45:24.105Z,17.70
2022-08-16T06:50:52.029Z,17.80
2022-08-16T06:55:59.193Z,17.90
2022-08-16T07:01:09.897Z,18.20
2022-08-16T07:06:21.869Z,18.60
2022-08-16T07:11:45.756Z,18.80
2022-08-16T07:16:58.000Z,18.90
2022-08-16T07:22:03.730Z,19.10
2022-08-16T07:27:08.526Z,19.10
2022-08-16T07:32:19.156Z,19.00
2022-08-16T07:37:33.240Z,19.10
2022-08-16T07:42:50.380Z,19.10
2022-08-16T07:47:52.994Z,19.10
2022-08-16T07:52:55.894Z,19.30
2022-08-16T07:58:00.943Z,19.70
2022-08-16T08:03:10.750Z,20.00
2022-08-16T08:08:50.820Z,20.20
2022-08-16T08:13:42.194Z,20.30
2022-08-16T08:18:56.049Z,20.20
2022-08-16T08:24:05.345Z,20.00
2022-08-16T08:29:13.174Z,20.00
2022-08-16T08:34:17.781Z,20.00
2022-08-16T08:39:22.378Z,20.00
2022-08-16T08:44:28.387Z,20.30
2022-08-16T08:49:46.308Z,21.20
2022-08-16T08:54:50.867Z,22.70
2022-08-16T08:59:55.224Z,23.70
2022-08-16T09:04:59.463Z,23.90
2022-08-16T09:10:06.722Z,24.00
2022-08-16T09:15:23.862Z,23.40
2022-08-16T09:20:29.436Z,22.80
2022-08-16T09:25:35.286Z,23.10
2022-08-16T09:30:45.101Z,23.40
2022-08-16T09:35:53.181Z,22.80
2022-08-16T09:40:57.970Z,22.40
2022-08-16T09:46:03.573Z,22.00
2022-08-16T09:51:30.736Z,21.60
2022-08-16T09:56:52.182Z,21.50
2022-08-16T10:01:55.747Z,21.80
2022-08-16T10:12:24.596Z,23.20
2022-08-16T10:17:30.771Z,24.40
2022-08-16T10:22:33.331Z,24.40
2022-08-16T10:27:46.017Z,23.90
2022-08-16T10:32:52.552Z,23.30
2022-08-16T10:37:54.820Z,22.50
2022-08-16T10:42:59.164Z,22.60
2022-08-16T10:48:04.111Z,22.70
2022-08-16T10:53:07.541Z,22.40
2022-08-16T10:58:13.460Z,22.40
2022-08-16T11:08:48.846Z,22.60
2022-08-16T11:14:05.847Z,22.30
2022-08-16T11:19:13.219Z,22.20
2022-08-16T11:24:39.486Z,22.80
2022-08-16T11:29:38.597Z,23.40
2022-08-16T11:35:06.140Z,23.20
2022-08-16T11:40:05.584Z,23.00
2022-08-16T11:45:08.691Z,23.00
2022-08-16T11:50:11.446Z,22.70
2022-08-16T11:55:13.985Z,22.30
2022-08-16T12:00:34.240Z,22.10
2022-08-16T12:05:43.457Z,22.00
2022-08-16T12:10:46.699Z,22.30
2022-08-16T12:15:49.384Z,23.40
2022-08-16T12:20:55.276Z,24.20
2022-08-16T12:26:00.481Z,25.80
2022-08-16T12:31:08.501Z,26.00
2022-08-16T12:36:14.142Z,26.90
2022-08-16T12:41:25.151Z,26.70
2022-08-16T12:46:28.067Z,27.10
2022-08-16T12:51:58.796Z,27.40
2022-08-16T12:56:57.857Z,26.70
2022-08-16T13:02:00.854Z,26.40
2022-08-16T13:07:05.180Z,25.80
2022-08-16T13:12:49.426Z,24.80
2022-08-16T13:17:59.232Z,23.20
2022-08-16T13:23:17.079Z,22.80
2022-08-16T13:29:03.553Z,23.50
2022-08-16T13:34:42.743Z,24.10
2022-08-16T13:39:52.476Z,23.70
2022-08-16T13:45:17.346Z,23.50
2022-08-16T13:50:51.575Z,23.20
2022-08-16T13:56:11.981Z,23.20
2022-08-16T14:01:29.260Z,23.00
2022-08-16T14:06:34.345Z,22.90
2022-08-16T14:11:37.695Z,22.70
2022-08-16T14:16:39.983Z,22.20
2022-08-16T14:22:13.768Z,21.30
2022-08-16T14:27:13.264Z,20.40
2022-08-16T14:32:33.664Z,19.30
2022-08-16T14:37:43.224Z,18.90
2022-08-16T14:42:49.765Z,18.80
2022-08-16T14:47:57.305Z,18.60
2022-08-16T14:53:07.036Z,18.40
2022-08-16T14:58:19.263Z,18.10
2022-08-16T15:03:24.378Z,17.90
2022-08-16T15:08:36.836Z,17.90
2022-08-16T15:13:41.214Z,18.00
2022-08-16T15:18:46.604Z,18.30
2022-08-16T15:23:55.000Z,18.50
2022-08-16T15:29:02.370Z,18.30
2022-08-16T15:34:06.370Z,18.40
2022-08-16T15:39:31.702Z,18.30
2022-08-16T15:44:44.556Z,18.20
2022-08-16T15:49:56.427Z,18.40
2022-08-16T15:55:13.004Z,18.50
2022-08-16T16:00:29.808Z,18.40
2022-08-16T16:05:43.043Z,18.50
2022-08-16T16:10:54.099Z,18.50
2022-08-16T16:16:03.085Z,18.50
2022-08-16T16:21:12.131Z,18.50
2022-08-16T16:26:24.893Z,18.50
2022-08-16T16:31:36.045Z,18.70
2022-08-16T16:36:48.397Z,19.00
2022-08-16T16:41:52.863Z,19.40
2022-08-16T17:06:10.409Z,19.20
2022-08-16T17:11:41.564Z,19.20
2022-08-16T17:16:51.751Z,18.80
2022-08-16T17:21:58.979Z,18.60
2022-08-16T17:27:18.370Z,18.80
2022-08-16T17:32:50.797Z,18.80
2022-08-16T17:38:38.737Z,18.80
2022-08-16T17:44:23.030Z,18.80
2022-08-16T17:49:31.279Z,18.80
2022-08-16T17:54:36.427Z,18.80
2022-08-16T17:59:46.214Z,18.70
2022-08-16T18:05:13.285Z,18.50
2022-08-16T18:10:32.822Z,18.60
2022-08-16T18:15:45.317Z,18.60
2022-08-16T18:21:17.583Z,18.80
2022-08-16T18:26:48.472Z,19.10
2022-08-16T18:31:56.083Z,18.90
2022-08-16T18:37:11.616Z,18.80
2022-08-16T18:42:17.957Z,18.90
2022-08-16T18:47:38.187Z,18.90
2022-08-16T18:52:58.479Z,18.80
2022-08-16T18:58:03.747Z,18.80
2022-08-16T19:03:16.934Z,18.60
2022-08-16T19:08:28.130Z,18.30
2022-08-16T19:13:35.420Z,18.10
2022-08-16T19:24:06.367Z,17.70
2022-08-16T19:29:21.506Z,17.50
2022-08-16T19:34:31.323Z,17.20
2022-08-16T19:39:33.934Z,17.10
2022-08-16T19:44:36.168Z,17.10
2022-08-16T19:49:39.106Z,17.00
2022-08-16T19:54:41.906Z,17.00
2022-08-16T19:59:44.815Z,17.00
2022-08-16T20:04:47.554Z,17.00
2022-08-16T20:09:50.408Z,17.00
2022-08-16T20:14:52.852Z,17.00
2022-08-16T20:19:55.084Z,17.00
2022-08-16T20:24:59.580Z,16.90
2022-08-16T20:30:04.921Z,17.00
2022-08-16T20:35:11.542Z,17.10
2022-08-16T20:40:28.394Z,17.10
2022-08-16T20:45:38.778Z,17.20
2022-08-16T20:50:41.448Z,17.10
2022-08-16T20:55:45.644Z,16.90
2022-08-16T21:00:48.045Z,16.80
2022-08-16T21:05:50.461Z,16.70
2022-08-16T21:10:52.718Z,16.80
2022-08-16T21:15:55.167Z,16.70
2022-08-16T21:20:57.482Z,16.60
2022-08-16T21:25:59.978Z,16.50
2022-08-16T21:31:02.264Z,16.40
2022-08-16T21:36:05.359Z,16.30
2022-08-16T21:41:11.539Z,16.30
2022-08-16T21:46:14.875Z,16.30
2022-08-16T21:51:17.082Z,16.30
2022-08-16T21:56:19.474Z,16.30
2022-08-16T22:01:23.436Z,16.30
2022-08-16T22:06:25.965Z,16.30
2022-08-16T22:11:28.698Z,16.30
2022-08-16T22:16:33.957Z,16.30
2022-08-16T22:21:36.273Z,16.30
2022-08-16T22:26:43.144Z,16.40
2022-08-16T22:31:46.012Z,16.50
2022-08-16T22:36:49.762Z,16.60
2022-08-16T22:41:52.477Z,16.60
2022-08-16T22:46:55.055Z,16.70
2022-08-16T22:52:05.735Z,16.70
2022-08-16T22:57:09.371Z,16.70
2022-08-16T23:02:12.240Z,16.80
2022-08-16T23:07:14.448Z,16.80
2022-08-16T23:12:16.867Z,16.70
2022-08-16T23:17:31.289Z,16.70
2022-08-16T23:23:19.369Z,16.70
2022-08-16T23:28:12.549Z,16.60
2022-08-16T23:33:16.407Z,16.60
2022-08-16T23:38:38.930Z,16.40
2022-08-16T23:43:43.590Z,16.40
2022-08-16T23:49:58.302Z,16.40
2022-08-16T23:54:11.571Z,16.40
2022-08-16T23:59:13.889Z,16.50
